Time;durP1;ratioP1;P1;durP2;ratioP2;P2;SDS_P1;SDS_P2;PMS_P1;PMS_P2;Temp;Humidity;BMP_temperature;BMP_pressure;BME280_temperature;BME280_humidity;BME280_pressure;Samples;Min_cycle;Max_cycle;Signal;HPM_P1;HPM_P2
2021/04/28 00:00:13;;;;;;;2.30;2.10;;;;;;;;;;4995435;28;20078;-59
2021/04/28 00:02:38;;;;;;;3.03;2.03;;;;;;;;;;4995717;28;20448;-59
2021/04/28 00:05:08;;;;;;;2.45;1.90;;;;;;;;;;4993147;28;20047;-59
2021/04/28 00:07:34;;;;;;;3.25;2.10;;;;;;;;;;4996477;28;20513;-59
2021/04/28 00:10:00;;;;;;;2.55;1.75;;;;;;;;;;4996374;28;20045;-59
2021/04/28 00:12:25;;;;;;;2.78;2.17;;;;;;;;;;5000498;28;20155;-58
2021/04/28 00:14:51;;;;;;;2.28;1.90;;;;;;;;;;4995545;28;20044;-59
2021/04/28 00:17:16;;;;;;;3.35;2.35;;;;;;;;;;4994583;28;20031;-59
2021/04/28 00:19:42;;;;;;;2.40;1.80;;;;;;;;;;4997403;28;20031;-59
2021/04/28 00:22:07;;;;;;;2.63;1.90;;;;;;;;;;4998380;28;20092;-58
2021/04/28 00:24:33;;;;;;;3.30;2.38;;;;;;;;;;4995701;28;20031;-59
2021/04/28 00:26:58;;;;;;;2.45;2.03;;;;;;;;;;4993549;28;20038;-59
2021/04/28 00:29:24;;;;;;;2.35;1.90;;;;;;;;;;4995685;28;20062;-59
2021/04/28 00:31:50;;;;;;;2.88;2.20;;;;;;;;;;4996465;28;20034;-59
2021/04/28 00:34:17;;;;;;;2.58;1.92;;;;;;;;;;4995953;28;20036;-59
2021/04/28 00:36:42;;;;;;;2.33;1.95;;;;;;;;;;4993358;28;20031;-59
2021/04/28 00:39:08;;;;;;;2.63;1.75;;;;;;;;;;4992822;28;20892;-59
2021/04/28 00:41:34;;;;;;;2.90;1.85;;;;;;;;;;4994363;28;20031;-59
2021/04/28 00:44:00;;;;;;;3.20;1.98;;;;;;;;;;4994828;28;20034;-59
2021/04/28 00:46:25;;;;;;;2.33;1.75;;;;;;;;;;4978292;28;20026;-59
2021/04/28 00:48:51;;;;;;;2.72;1.98;;;;;;;;;;4978815;28;20101;-59
2021/04/28 00:51:16;;;;;;;2.13;1.75;;;;;;;;;;4996490;28;20376;-59
2021/04/28 00:53:42;;;;;;;3.30;2.03;;;;;;;;;;4992891;28;20034;-59
2021/04/28 00:56:07;;;;;;;2.88;2.00;;;;;;;;;;4995897;28;20501;-59
2021/04/28 00:58:33;;;;;;;3.28;1.85;;;;;;;;;;4994200;28;20039;-59
2021/04/28 01:00:59;;;;;;;2.13;1.83;;;;;;;;;;5000845;28;20064;-59
2021/04/28 01:03:28;;;;;;;2.92;1.92;;;;;;;;;;4983892;28;20034;-59
2021/04/28 01:05:59;;;;;;;2.30;1.85;;;;;;;;;;4997172;28;20085;-59
2021/04/28 01:08:25;;;;;;;3.15;2.10;;;;;;;;;;4994627;28;20584;-59
2021/04/28 01:10:50;;;;;;;2.83;1.73;;;;;;;;;;4993912;28;20157;-59
2021/04/28 01:13:17;;;;;;;2.88;2.05;;;;;;;;;;4996801;28;20034;-59
2021/04/28 01:15:43;;;;;;;2.42;1.73;;;;;;;;;;4983900;28;20039;-59
2021/04/28 01:18:12;;;;;;;2.65;1.80;;;;;;;;;;4995122;28;20030;-58
2021/04/28 01:20:39;;;;;;;3.22;2.30;;;;;;;;;;4994528;28;20123;-59
2021/04/28 01:23:06;;;;;;;2.95;1.90;;;;;;;;;;4977307;28;20065;-60
2021/04/28 01:25:32;;;;;;;3.45;1.90;;;;;;;;;;4993904;28;20588;-59
2021/04/28 01:28:09;;;;;;;2.08;1.73;;;;;;;;;;4996059;28;20572;-59
2021/04/28 01:30:40;;;;;;;2.33;1.70;;;;;;;;;;5000543;28;20109;-59
2021/04/28 01:33:32;;;;;;;1.90;1.73;;;;;;;;;;4978563;28;20053;-59
2021/04/28 01:35:58;;;;;;;2.67;1.85;;;;;;;;;;4979560;28;20102;-59
2021/04/28 01:38:26;;;;;;;2.28;1.95;;;;;;;;;;4994112;28;20046;-59
2021/04/28 01:40:51;;;;;;;3.67;2.13;;;;;;;;;;5000236;28;20121;-59
2021/04/28 01:43:18;;;;;;;2.85;1.90;;;;;;;;;;4982979;28;20034;-59
2021/04/28 01:45:52;;;;;;;3.47;2.00;;;;;;;;;;4992020;28;20035;-59
2021/04/28 01:48:19;;;;;;;3.22;1.98;;;;;;;;;;4993943;28;20039;-59
2021/04/28 01:50:46;;;;;;;2.80;2.03;;;;;;;;;;4994958;28;20043;-59
2021/04/28 01:53:13;;;;;;;2.65;2.00;;;;;;;;;;4994040;28;20038;-59
2021/04/28 01:55:38;;;;;;;2.92;1.88;;;;;;;;;;4983847;28;20060;-59
2021/04/28 01:58:27;;;;;;;2.75;1.83;;;;;;;;;;4987733;28;20080;-59
2021/04/28 02:00:53;;;;;;;2.10;1.77;;;;;;;;;;4983596;28;20026;-59
2021/04/28 02:03:22;;;;;;;2.10;1.90;;;;;;;;;;4994239;28;20022;-59
2021/04/28 02:05:48;;;;;;;2.40;1.90;;;;;;;;;;4979052;28;20042;-59
2021/04/28 02:08:14;;;;;;;3.25;2.10;;;;;;;;;;4977032;28;20026;-59
2021/04/28 02:10:41;;;;;;;3.35;2.10;;;;;;;;;;4983995;28;20041;-59
2021/04/28 02:13:16;;;;;;;2.95;1.85;;;;;;;;;;5011035;28;20049;-59
2021/04/28 02:15:44;;;;;;;3.53;2.10;;;;;;;;;;5001671;28;20034;-59
2021/04/28 02:18:09;;;;;;;2.83;2.03;;;;;;;;;;4976310;28;20042;-59
2021/04/28 02:20:39;;;;;;;2.40;2.00;;;;;;;;;;4983863;28;20036;-59
2021/04/28 02:23:25;;;;;;;3.03;2.00;;;;;;;;;;4960043;28;20502;-59
2021/04/28 02:25:56;;;;;;;2.35;1.90;;;;;;;;;;4993244;28;20042;-59
2021/04/28 02:28:21;;;;;;;3.13;2.05;;;;;;;;;;4993029;28;20043;-60
2021/04/28 02:30:56;;;;;;;2.75;1.80;;;;;;;;;;4999148;28;20030;-59
2021/04/28 02:33:21;;;;;;;2.25;1.80;;;;;;;;;;4991592;28;20047;-59
2021/04/28 02:36:05;;;;;;;2.22;1.95;;;;;;;;;;4983614;28;20046;-59
2021/04/28 02:38:54;;;;;;;2.60;2.00;;;;;;;;;;4996622;28;20050;-59
2021/04/28 02:41:27;;;;;;;2.25;1.90;;;;;;;;;;4995855;28;20035;-59
2021/04/28 02:43:53;;;;;;;2.90;2.00;;;;;;;;;;4998221;28;20058;-59
2021/04/28 02:46:24;;;;;;;2.58;1.77;;;;;;;;;;4980616;28;20883;-59
2021/04/28 02:48:54;;;;;;;2.90;2.10;;;;;;;;;;4987766;28;20516;-59
2021/04/28 02:51:42;;;;;;;2.45;2.25;;;;;;;;;;4986885;28;20046;-59
2021/04/28 02:54:26;;;;;;;2.83;1.85;;;;;;;;;;4996115;28;21165;-59
2021/04/28 02:56:53;;;;;;;2.30;1.88;;;;;;;;;;4996691;28;20035;-59
2021/04/28 02:59:20;;;;;;;2.95;2.00;;;;;;;;;;4979377;28;20039;-59
2021/04/28 03:01:48;;;;;;;2.20;2.00;;;;;;;;;;4995325;28;20074;-59
2021/04/28 03:04:17;;;;;;;3.50;2.00;;;;;;;;;;5005221;28;20026;-59
2021/04/28 03:07:12;;;;;;;2.78;1.85;;;;;;;;;;4978578;28;20047;-59
2021/04/28 03:09:39;;;;;;;2.25;1.90;;;;;;;;;;5012367;28;20039;-59
2021/04/28 03:12:06;;;;;;;2.20;1.90;;;;;;;;;;4995404;28;20117;-59
2021/04/28 03:14:39;;;;;;;2.20;1.83;;;;;;;;;;5012263;28;20039;-59
2021/04/28 03:17:07;;;;;;;3.63;1.90;;;;;;;;;;5010679;28;20242;-59
2021/04/28 03:19:33;;;;;;;2.63;1.90;;;;;;;;;;4969810;28;20514;-59
2021/04/28 03:21:58;;;;;;;3.47;1.88;;;;;;;;;;4996507;28;20089;-59
2021/04/28 03:24:24;;;;;;;4.05;2.20;;;;;;;;;;4998931;28;20039;-59
2021/04/28 03:26:54;;;;;;;2.30;1.75;;;;;;;;;;4995937;28;20416;-59
2021/04/28 03:29:19;;;;;;;3.08;2.00;;;;;;;;;;5002493;28;20035;-59
2021/04/28 03:31:45;;;;;;;2.53;2.00;;;;;;;;;;4980057;28;20035;-59
2021/04/28 03:34:11;;;;;;;2.55;1.90;;;;;;;;;;5011889;28;20491;-59
2021/04/28 03:36:37;;;;;;;3.65;1.80;;;;;;;;;;4997231;28;20035;-59
2021/04/28 03:39:16;;;;;;;3.42;2.00;;;;;;;;;;5001500;28;20077;-59
2021/04/28 03:41:41;;;;;;;2.40;1.75;;;;;;;;;;4997265;28;20038;-59
2021/04/28 03:44:07;;;;;;;2.75;1.77;;;;;;;;;;4985989;28;20036;-59
2021/04/28 03:46:33;;;;;;;2.08;1.67;;;;;;;;;;5001247;28;20041;-59
2021/04/28 03:48:59;;;;;;;2.78;1.85;;;;;;;;;;4994510;28;20026;-59
2021/04/28 03:51:26;;;;;;;3.03;1.73;;;;;;;;;;4996413;28;20035;-59
2021/04/28 03:54:24;;;;;;;2.10;1.70;;;;;;;;;;4967252;28;20628;-59
2021/04/28 03:56:57;;;;;;;3.45;1.70;;;;;;;;;;4995591;28;20600;-59
2021/04/28 03:59:23;;;;;;;2.60;1.90;;;;;;;;;;4997397;28;20045;-59
2021/04/28 04:01:53;;;;;;;2.40;1.95;;;;;;;;;;4993862;28;20089;-59
2021/04/28 04:04:19;;;;;;;2.50;1.75;;;;;;;;;;4993989;28;20088;-59
2021/04/28 04:07:03;;;;;;;3.13;1.90;;;;;;;;;;4994415;28;20042;-59
2021/04/28 04:09:34;;;;;;;2.85;1.98;;;;;;;;;;5007555;28;20043;-59
2021/04/28 04:12:00;;;;;;;2.72;1.90;;;;;;;;;;4994784;28;20549;-59
2021/04/28 04:14:34;;;;;;;2.67;2.05;;;;;;;;;;4992637;28;20039;-59
2021/04/28 04:17:00;;;;;;;2.22;1.83;;;;;;;;;;5000789;28;20109;-59
2021/04/28 04:19:25;;;;;;;2.58;1.90;;;;;;;;;;4994780;28;20034;-59
2021/04/28 04:22:23;;;;;;;2.95;1.92;;;;;;;;;;4984172;28;20067;-59
2021/04/28 04:24:50;;;;;;;3.15;1.88;;;;;;;;;;4995671;28;20059;-59
2021/04/28 04:27:16;;;;;;;2.20;1.60;;;;;;;;;;4985691;28;20074;-59
2021/04/28 04:29:51;;;;;;;3.67;2.00;;;;;;;;;;4993818;28;20047;-59
2021/04/28 04:32:28;;;;;;;3.22;1.90;;;;;;;;;;4993166;28;20059;-59
2021/04/28 04:35:14;;;;;;;2.08;1.80;;;;;;;;;;4996058;28;20039;-59
2021/04/28 04:38:16;;;;;;;1.98;1.70;;;;;;;;;;4995535;28;20044;-59
2021/04/28 04:40:57;;;;;;;2.25;1.60;;;;;;;;;;4985800;28;20034;-59
2021/04/28 04:43:42;;;;;;;3.65;2.30;;;;;;;;;;4994102;28;20223;-59
2021/04/28 04:46:08;;;;;;;3.50;2.17;;;;;;;;;;4992953;28;20833;-59
2021/04/28 04:48:34;;;;;;;3.03;2.28;;;;;;;;;;4994913;28;20062;-59
2021/04/28 04:50:59;;;;;;;2.65;1.88;;;;;;;;;;4994408;28;20031;-59
2021/04/28 04:53:25;;;;;;;2.63;2.00;;;;;;;;;;4994135;28;20035;-59
2021/04/28 04:55:50;;;;;;;2.85;1.98;;;;;;;;;;4993321;28;20073;-59
2021/04/28 04:58:16;;;;;;;2.70;1.80;;;;;;;;;;4992829;28;20072;-59
2021/04/28 05:00:42;;;;;;;4.68;2.13;;;;;;;;;;4996210;28;20042;-59
2021/04/28 05:03:07;;;;;;;2.15;1.90;;;;;;;;;;4994894;28;20046;-59
2021/04/28 05:05:32;;;;;;;3.53;2.00;;;;;;;;;;4999539;28;20031;-59
2021/04/28 05:07:58;;;;;;;2.63;1.92;;;;;;;;;;4994140;28;20034;-59
2021/04/28 05:10:23;;;;;;;3.58;1.83;;;;;;;;;;4995559;28;20018;-59
2021/04/28 05:12:49;;;;;;;2.30;2.00;;;;;;;;;;4995094;28;20082;-59
2021/04/28 05:15:15;;;;;;;2.90;2.05;;;;;;;;;;4993919;28;20035;-59
2021/04/28 05:17:41;;;;;;;3.00;2.10;;;;;;;;;;5000295;28;20533;-59
2021/04/28 05:20:07;;;;;;;3.53;2.13;;;;;;;;;;4994128;28;20046;-59
2021/04/28 05:22:34;;;;;;;4.28;2.30;;;;;;;;;;4995578;28;20034;-59
2021/04/28 05:25:25;;;;;;;3.10;2.05;;;;;;;;;;4990912;28;20092;-59
2021/04/28 05:27:51;;;;;;;2.35;2.00;;;;;;;;;;4983649;28;20120;-59
2021/04/28 05:30:17;;;;;;;3.10;1.90;;;;;;;;;;4995021;28;20554;-59
2021/04/28 05:32:42;;;;;;;2.35;2.10;;;;;;;;;;4993960;28;20062;-59
2021/04/28 05:35:09;;;;;;;3.25;2.08;;;;;;;;;;4995762;28;20482;-59
2021/04/28 05:37:35;;;;;;;2.97;2.10;;;;;;;;;;4999588;28;20055;-59
2021/04/28 05:40:05;;;;;;;3.65;2.00;;;;;;;;;;4993529;28;20054;-58
2021/04/28 05:42:31;;;;;;;4.13;2.22;;;;;;;;;;4992251;28;20553;-60
2021/04/28 05:44:57;;;;;;;2.47;1.73;;;;;;;;;;4977924;28;20077;-59
2021/04/28 05:47:22;;;;;;;3.53;2.28;;;;;;;;;;4994147;28;20041;-59
2021/04/28 05:49:47;;;;;;;2.42;2.08;;;;;;;;;;4993858;28;20049;-59
2021/04/28 05:52:13;;;;;;;3.35;2.00;;;;;;;;;;4995319;28;20092;-59
2021/04/28 05:54:38;;;;;;;3.13;2.05;;;;;;;;;;4996345;28;20035;-59
2021/04/28 05:57:04;;;;;;;3.25;2.38;;;;;;;;;;4991137;28;20041;-59
2021/04/28 05:59:30;;;;;;;2.20;1.92;;;;;;;;;;4992316;28;20031;-59
2021/04/28 06:01:55;;;;;;;3.20;1.83;;;;;;;;;;4993799;28;20402;-60
2021/04/28 06:04:21;;;;;;;3.35;2.10;;;;;;;;;;4993985;28;20495;-60
2021/04/28 06:06:46;;;;;;;3.13;1.92;;;;;;;;;;4993436;28;20034;-59
2021/04/28 06:09:12;;;;;;;3.17;2.20;;;;;;;;;;4993046;28;20055;-59
2021/04/28 06:11:37;;;;;;;3.58;2.22;;;;;;;;;;4997352;28;20049;-59
2021/04/28 06:14:03;;;;;;;2.42;1.90;;;;;;;;;;4996854;28;20617;-59
2021/04/28 06:16:29;;;;;;;3.03;1.98;;;;;;;;;;5004376;28;20041;-60
2021/04/28 06:18:54;;;;;;;2.88;2.28;;;;;;;;;;5003658;28;20033;-59
2021/04/28 06:21:19;;;;;;;2.83;2.20;;;;;;;;;;4998624;28;20046;-59
2021/04/28 06:23:45;;;;;;;3.15;2.20;;;;;;;;;;5013275;28;20086;-59
2021/04/28 06:26:10;;;;;;;3.10;2.20;;;;;;;;;;4998007;28;20088;-59
2021/04/28 06:28:36;;;;;;;2.65;2.00;;;;;;;;;;4994816;28;20041;-59
2021/04/28 06:31:01;;;;;;;3.05;2.25;;;;;;;;;;4999256;28;20475;-59
2021/04/28 06:33:27;;;;;;;3.03;2.03;;;;;;;;;;5003664;28;20046;-59
2021/04/28 06:35:52;;;;;;;3.45;2.10;;;;;;;;;;4996913;28;20038;-59
2021/04/28 06:38:18;;;;;;;3.17;2.00;;;;;;;;;;4998218;28;20031;-59
2021/04/28 06:40:43;;;;;;;2.60;1.83;;;;;;;;;;4997598;28;20554;-59
2021/04/28 06:43:09;;;;;;;3.25;2.20;;;;;;;;;;4997255;28;20073;-59
2021/04/28 06:45:35;;;;;;;3.75;2.30;;;;;;;;;;4997445;28;20125;-59
2021/04/28 06:48:01;;;;;;;2.97;2.08;;;;;;;;;;5002890;28;20403;-59
2021/04/28 06:50:27;;;;;;;3.63;2.10;;;;;;;;;;4995384;28;20042;-59
2021/04/28 06:52:53;;;;;;;3.13;2.08;;;;;;;;;;4998115;28;20121;-59
2021/04/28 06:55:18;;;;;;;4.35;1.98;;;;;;;;;;4997645;28;20061;-59
2021/04/28 06:57:44;;;;;;;3.13;2.33;;;;;;;;;;4994691;28;20034;-59
2021/04/28 07:00:10;;;;;;;2.83;2.10;;;;;;;;;;4997634;28;20050;-59
2021/04/28 07:02:35;;;;;;;3.35;2.20;;;;;;;;;;4997890;28;20030;-59
2021/04/28 07:05:01;;;;;;;2.78;2.15;;;;;;;;;;4983821;28;20558;-59
2021/04/28 07:07:26;;;;;;;3.03;2.15;;;;;;;;;;4998588;28;20038;-59
2021/04/28 07:09:52;;;;;;;3.53;2.25;;;;;;;;;;4996799;28;20567;-59
2021/04/28 07:12:17;;;;;;;2.38;2.17;;;;;;;;;;5002903;28;20082;-60
2021/04/28 07:14:43;;;;;;;3.45;2.28;;;;;;;;;;4997026;28;20047;-60
2021/04/28 07:17:09;;;;;;;3.88;2.30;;;;;;;;;;4995599;28;20600;-59
2021/04/28 07:19:34;;;;;;;3.65;2.20;;;;;;;;;;4997098;28;20069;-61
2021/04/28 07:22:00;;;;;;;3.75;2.50;;;;;;;;;;4994705;28;20035;-61
2021/04/28 07:24:25;;;;;;;3.45;2.42;;;;;;;;;;5002394;28;20048;-62
2021/04/28 07:26:52;;;;;;;3.00;2.30;;;;;;;;;;4997514;28;20085;-60
2021/04/28 07:29:18;;;;;;;3.85;2.67;;;;;;;;;;5010384;28;20113;-59
2021/04/28 07:31:43;;;;;;;3.67;2.40;;;;;;;;;;4993673;28;20809;-59
2021/04/28 07:34:09;;;;;;;2.97;2.15;;;;;;;;;;4996366;28;20046;-60
2021/04/28 07:36:34;;;;;;;3.25;2.63;;;;;;;;;;4996390;28;20467;-60
2021/04/28 07:38:59;;;;;;;3.45;2.10;;;;;;;;;;4997272;28;20077;-60
2021/04/28 07:41:25;;;;;;;3.95;2.50;;;;;;;;;;4996715;28;20069;-60
2021/04/28 07:43:50;;;;;;;4.18;2.70;;;;;;;;;;4995775;28;20042;-60
2021/04/28 07:46:16;;;;;;;3.28;2.30;;;;;;;;;;4997213;28;20406;-60
2021/04/28 07:48:41;;;;;;;3.05;2.40;;;;;;;;;;4995760;28;20042;-60
2021/04/28 07:51:07;;;;;;;3.70;2.50;;;;;;;;;;4996603;28;20026;-60
2021/04/28 07:53:32;;;;;;;3.03;2.30;;;;;;;;;;4996115;28;20476;-60
2021/04/28 07:55:58;;;;;;;3.03;2.50;;;;;;;;;;4976533;28;20027;-60
2021/04/28 07:58:23;;;;;;;3.47;2.40;;;;;;;;;;4996333;28;20042;-60
2021/04/28 08:00:49;;;;;;;2.78;2.30;;;;;;;;;;4995921;28;20034;-60
2021/04/28 08:03:14;;;;;;;3.45;2.42;;;;;;;;;;4996787;28;20493;-60
2021/04/28 08:05:40;;;;;;;3.70;2.50;;;;;;;;;;4994594;28;20049;-59
2021/04/28 08:08:05;;;;;;;3.22;2.42;;;;;;;;;;4994824;28;20034;-59
2021/04/28 08:10:31;;;;;;;3.90;2.42;;;;;;;;;;4994746;28;20041;-60
2021/04/28 08:12:56;;;;;;;3.00;2.47;;;;;;;;;;4995108;28;20058;-59
2021/04/28 08:15:22;;;;;;;3.90;2.60;;;;;;;;;;4995846;28;20035;-60
2021/04/28 08:17:47;;;;;;;3.17;2.60;;;;;;;;;;4996389;28;20922;-59
2021/04/28 08:20:14;;;;;;;3.75;2.60;;;;;;;;;;4995913;28;20204;-60
2021/04/28 08:22:39;;;;;;;3.47;2.50;;;;;;;;;;4985129;28;20064;-60
2021/04/28 08:25:07;;;;;;;3.72;2.80;;;;;;;;;;4977317;28;20081;-60
2021/04/28 08:27:32;;;;;;;4.03;2.83;;;;;;;;;;4995996;28;20088;-59
2021/04/28 08:29:58;;;;;;;3.28;2.45;;;;;;;;;;4996258;28;20045;-60
2021/04/28 08:32:24;;;;;;;4.53;2.95;;;;;;;;;;4995604;28;20122;-59
2021/04/28 08:34:49;;;;;;;4.18;2.70;;;;;;;;;;4996542;28;20109;-59
2021/04/28 08:37:15;;;;;;;3.08;2.45;;;;;;;;;;4996170;28;20097;-60
2021/04/28 08:39:40;;;;;;;3.65;2.80;;;;;;;;;;4994528;28;20043;-60
2021/04/28 08:42:06;;;;;;;4.75;2.80;;;;;;;;;;5001207;28;20082;-60
2021/04/28 08:44:32;;;;;;;4.00;2.90;;;;;;;;;;5000877;28;20795;-60
2021/04/28 08:46:57;;;;;;;3.35;2.60;;;;;;;;;;4994985;28;20039;-59
2021/04/28 08:49:23;;;;;;;3.75;2.92;;;;;;;;;;5001602;28;20035;-60
2021/04/28 08:51:48;;;;;;;4.15;2.90;;;;;;;;;;4997054;28;20053;-60
2021/04/28 08:54:14;;;;;;;5.60;3.03;;;;;;;;;;5010074;28;20042;-59
2021/04/28 08:56:39;;;;;;;5.25;3.10;;;;;;;;;;5000363;28;20034;-59
2021/04/28 08:59:05;;;;;;;3.88;2.53;;;;;;;;;;4995650;28;20423;-59
2021/04/28 09:01:32;;;;;;;3.40;2.83;;;;;;;;;;5000592;28;20035;-60
2021/04/28 09:03:58;;;;;;;3.88;2.80;;;;;;;;;;4996467;28;20034;-59
2021/04/28 09:06:32;;;;;;;4.45;3.10;;;;;;;;;;4978852;28;20039;-60
2021/04/28 09:09:05;;;;;;;5.03;3.20;;;;;;;;;;4994307;28;20034;-59
2021/04/28 09:11:33;;;;;;;4.25;3.10;;;;;;;;;;4994792;28;21214;-59
2021/04/28 09:14:06;;;;;;;4.13;2.75;;;;;;;;;;4995686;28;20041;-59
2021/04/28 09:16:32;;;;;;;3.83;2.70;;;;;;;;;;4993138;28;20117;-60
2021/04/28 09:18:57;;;;;;;4.05;2.97;;;;;;;;;;5001152;28;20038;-59
2021/04/28 09:21:50;;;;;;;6.35;3.00;;;;;;;;;;4981100;28;20073;-60
2021/04/28 09:24:49;;;;;;;5.22;3.00;;;;;;;;;;4995387;28;20594;-59
2021/04/28 09:27:35;;;;;;;4.65;3.40;;;;;;;;;;4978724;28;20575;-59
2021/04/28 09:30:23;;;;;;;5.10;3.33;;;;;;;;;;5000879;28;20070;-59
2021/04/28 09:32:48;;;;;;;5.40;3.25;;;;;;;;;;4992728;28;20054;-60
2021/04/28 09:35:18;;;;;;;5.85;3.30;;;;;;;;;;5000597;28;20027;-59
2021/04/28 09:37:57;;;;;;;4.85;3.22;;;;;;;;;;4994881;28;20038;-58
2021/04/28 09:40:43;;;;;;;4.63;3.13;;;;;;;;;;4995090;28;20041;-59
2021/04/28 09:43:09;;;;;;;4.95;3.25;;;;;;;;;;4994993;28;20072;-59
2021/04/28 09:45:51;;;;;;;4.22;3.10;;;;;;;;;;4983293;28;20046;-59
2021/04/28 09:48:21;;;;;;;5.38;3.28;;;;;;;;;;4995675;28;20042;-59
2021/04/28 09:50:47;;;;;;;4.78;3.13;;;;;;;;;;4994863;28;20034;-59
2021/04/28 09:53:24;;;;;;;6.05;3.40;;;;;;;;;;4994098;28;20129;-59
2021/04/28 09:55:50;;;;;;;5.45;3.30;;;;;;;;;;4992905;28;20035;-59
2021/04/28 09:58:16;;;;;;;4.57;3.10;;;;;;;;;;4995733;28;20031;-59
2021/04/28 10:00:41;;;;;;;4.43;3.20;;;;;;;;;;4994020;28;20407;-59
2021/04/28 10:03:08;;;;;;;5.13;3.33;;;;;;;;;;4994067;28;20328;-59
2021/04/28 10:05:36;;;;;;;4.80;3.08;;;;;;;;;;4992508;28;20493;-59
2021/04/28 10:08:20;;;;;;;4.35;2.80;;;;;;;;;;4993629;28;20871;-59
2021/04/28 10:10:47;;;;;;;4.47;3.17;;;;;;;;;;4995066;28;20494;-59
2021/04/28 10:13:13;;;;;;;4.00;3.00;;;;;;;;;;4993647;28;21089;-59
2021/04/28 10:15:38;;;;;;;3.97;3.05;;;;;;;;;;5009895;28;20109;-59
2021/04/28 10:18:11;;;;;;;4.65;3.08;;;;;;;;;;4992697;28;20039;-59
2021/04/28 10:20:38;;;;;;;4.65;2.60;;;;;;;;;;5009282;28;20121;-59
2021/04/28 10:23:17;;;;;;;4.97;3.47;;;;;;;;;;5011059;28;20041;-59
2021/04/28 10:25:46;;;;;;;5.55;3.15;;;;;;;;;;4977103;28;20042;-60
2021/04/28 10:28:12;;;;;;;4.15;3.08;;;;;;;;;;4986060;28;20867;-59
2021/04/28 10:30:40;;;;;;;5.22;3.08;;;;;;;;;;4993007;28;20038;-60
2021/04/28 10:33:07;;;;;;;5.10;3.10;;;;;;;;;;4991997;28;20047;-59
2021/04/28 10:35:32;;;;;;;5.32;3.75;;;;;;;;;;4982914;28;20521;-59
2021/04/28 10:37:58;;;;;;;4.55;3.33;;;;;;;;;;5000096;28;20134;-59
2021/04/28 10:40:24;;;;;;;5.18;3.17;;;;;;;;;;4994926;28;20038;-59
2021/04/28 10:42:50;;;;;;;4.85;3.20;;;;;;;;;;4994568;28;20035;-59
2021/04/28 10:45:18;;;;;;;5.47;3.35;;;;;;;;;;4994980;28;20488;-59
2021/04/28 10:47:47;;;;;;;5.13;3.40;;;;;;;;;;4992810;28;20026;-59
2021/04/28 10:50:22;;;;;;;5.45;3.30;;;;;;;;;;4992663;28;20058;-59
2021/04/28 10:52:57;;;;;;;4.60;3.10;;;;;;;;;;4992877;28;20053;-59
2021/04/28 10:55:53;;;;;;;4.88;3.20;;;;;;;;;;4993935;28;20499;-59
2021/04/28 10:58:48;;;;;;;5.35;3.50;;;;;;;;;;4991295;28;20046;-60
2021/04/28 11:01:14;;;;;;;6.03;3.40;;;;;;;;;;4998147;28;20051;-59
2021/04/28 11:03:50;;;;;;;4.80;3.15;;;;;;;;;;4998376;28;20042;-59
2021/04/28 11:06:26;;;;;;;4.47;3.28;;;;;;;;;;4996342;28;20038;-59
2021/04/28 11:08:59;;;;;;;5.18;3.38;;;;;;;;;;4998674;28;20038;-59
2021/04/28 11:11:31;;;;;;;4.55;3.20;;;;;;;;;;4997933;28;20097;-59
2021/04/28 11:14:09;;;;;;;5.15;3.28;;;;;;;;;;4994759;28;20132;-59
2021/04/28 11:16:58;;;;;;;4.97;3.47;;;;;;;;;;4997037;28;20046;-59
2021/04/28 11:19:28;;;;;;;4.25;2.90;;;;;;;;;;4996385;28;20046;-59
2021/04/28 11:22:03;;;;;;;5.60;3.45;;;;;;;;;;5013343;28;20072;-59
2021/04/28 11:24:58;;;;;;;4.13;3.10;;;;;;;;;;4997339;28;20122;-59
2021/04/28 11:27:43;;;;;;;5.70;3.50;;;;;;;;;;4996956;28;20038;-59
2021/04/28 11:30:17;;;;;;;5.72;3.05;;;;;;;;;;4997506;28;20043;-59
2021/04/28 11:33:23;;;;;;;5.18;2.90;;;;;;;;;;4996891;28;20043;-59
2021/04/28 11:35:55;;;;;;;4.80;2.90;;;;;;;;;;4997326;28;20125;-59
2021/04/28 11:38:30;;;;;;;4.32;3.10;;;;;;;;;;4996185;28;20341;-59
2021/04/28 11:41:15;;;;;;;4.88;3.22;;;;;;;;;;4996092;28;20117;-59
2021/04/28 11:43:49;;;;;;;4.13;2.90;;;;;;;;;;4996634;28;20049;-59
2021/04/28 11:46:14;;;;;;;4.38;2.70;;;;;;;;;;4995428;28;20071;-59
2021/04/28 11:48:41;;;;;;;3.80;2.72;;;;;;;;;;4997258;28;20035;-59
2021/04/28 11:51:17;;;;;;;4.07;3.00;;;;;;;;;;4994693;28;20035;-59
2021/04/28 11:53:48;;;;;;;3.20;2.47;;;;;;;;;;4996533;28;20061;-59
2021/04/28 11:56:27;;;;;;;4.65;3.00;;;;;;;;;;4996534;28;20039;-59
2021/04/28 11:58:53;;;;;;;4.85;2.92;;;;;;;;;;4993857;28;20042;-59
2021/04/28 12:01:18;;;;;;;3.90;2.70;;;;;;;;;;4996318;28;20026;-59
2021/04/28 12:04:07;;;;;;;4.72;3.10;;;;;;;;;;4996707;28;20035;-59
2021/04/28 12:06:35;;;;;;;4.38;2.80;;;;;;;;;;4997179;28;20035;-59
2021/04/28 12:09:07;;;;;;;3.78;2.60;;;;;;;;;;4996362;28;20478;-59
2021/04/28 12:11:35;;;;;;;4.75;3.10;;;;;;;;;;4995249;28;20039;-59
2021/04/28 12:14:00;;;;;;;4.93;3.33;;;;;;;;;;4987423;28;20045;-59
2021/04/28 12:16:26;;;;;;;4.18;3.03;;;;;;;;;;4995044;28;20518;-59
2021/04/28 12:19:05;;;;;;;4.40;2.90;;;;;;;;;;5002687;28;20494;-59
2021/04/28 12:21:30;;;;;;;4.47;3.00;;;;;;;;;;4995570;28;20933;-59
2021/04/28 12:23:59;;;;;;;4.60;3.05;;;;;;;;;;4997406;28;20041;-59
2021/04/28 12:26:25;;;;;;;4.40;3.28;;;;;;;;;;4996977;28;20508;-59
2021/04/28 12:28:51;;;;;;;4.88;3.17;;;;;;;;;;4993997;28;20038;-59
2021/04/28 12:31:16;;;;;;;4.20;3.10;;;;;;;;;;4996807;28;20039;-59
2021/04/28 12:33:42;;;;;;;4.43;3.08;;;;;;;;;;5001821;28;20046;-60
2021/04/28 12:36:08;;;;;;;4.22;3.00;;;;;;;;;;4996068;28;20097;-59
2021/04/28 12:38:38;;;;;;;4.32;3.10;;;;;;;;;;4994979;28;20039;-60
2021/04/28 12:41:06;;;;;;;4.68;3.10;;;;;;;;;;4996135;28;20042;-59
2021/04/28 12:43:34;;;;;;;4.93;2.95;;;;;;;;;;4998024;28;20057;-59
2021/04/28 12:46:01;;;;;;;5.45;3.38;;;;;;;;;;5000761;28;20256;-59
2021/04/28 12:48:27;;;;;;;4.53;3.15;;;;;;;;;;4994735;28;20034;-59
2021/04/28 12:50:52;;;;;;;4.15;3.10;;;;;;;;;;5001038;28;20039;-59
2021/04/28 12:53:21;;;;;;;4.97;3.47;;;;;;;;;;4996325;28;20077;-60
2021/04/28 12:55:54;;;;;;;4.18;3.20;;;;;;;;;;4968497;28;20526;-60
2021/04/28 12:58:20;;;;;;;4.60;3.28;;;;;;;;;;4994989;28;20069;-59
2021/04/28 13:00:46;;;;;;;4.15;2.97;;;;;;;;;;5009432;28;20038;-59
2021/04/28 13:03:14;;;;;;;5.32;3.60;;;;;;;;;;4994535;28;20090;-60
2021/04/28 13:05:44;;;;;;;5.78;3.50;;;;;;;;;;4996346;28;20062;-59
2021/04/28 13:08:37;;;;;;;5.95;3.70;;;;;;;;;;4995706;28;20118;-60
2021/04/28 13:11:04;;;;;;;5.03;3.33;;;;;;;;;;4995519;28;20558;-59
2021/04/28 13:13:37;;;;;;;4.95;3.58;;;;;;;;;;4994201;28;20498;-60
2021/04/28 13:16:05;;;;;;;6.35;3.50;;;;;;;;;;5001710;28;20511;-60
2021/04/28 13:18:47;;;;;;;5.20;3.40;;;;;;;;;;4984110;28;20118;-59
2021/04/28 13:21:23;;;;;;;5.57;3.60;;;;;;;;;;5000555;28;20046;-60
2021/04/28 13:24:11;;;;;;;5.30;3.38;;;;;;;;;;4985033;28;20060;-60
2021/04/28 13:26:42;;;;;;;6.20;3.65;;;;;;;;;;4993913;28;20579;-60
2021/04/28 13:29:08;;;;;;;6.63;3.83;;;;;;;;;;4994737;28;20085;-59
2021/04/28 13:31:43;;;;;;;6.13;4.00;;;;;;;;;;4976808;28;20766;-60
2021/04/28 13:34:23;;;;;;;4.75;3.40;;;;;;;;;;4993532;28;20053;-60
2021/04/28 13:36:48;;;;;;;5.38;3.58;;;;;;;;;;4995878;28;20035;-60
2021/04/28 13:39:14;;;;;;;6.43;3.70;;;;;;;;;;4997186;28;20042;-60
2021/04/28 13:41:41;;;;;;;4.60;3.55;;;;;;;;;;4979132;28;20043;-59
2021/04/28 13:44:08;;;;;;;5.05;3.63;;;;;;;;;;4979051;28;20585;-59
2021/04/28 13:46:34;;;;;;;6.05;3.85;;;;;;;;;;4983399;28;21023;-59
2021/04/28 13:49:00;;;;;;;5.32;3.72;;;;;;;;;;5000241;28;20035;-59
2021/04/28 13:51:30;;;;;;;5.57;3.40;;;;;;;;;;5009487;28;20038;-59
2021/04/28 13:53:56;;;;;;;4.95;3.67;;;;;;;;;;4993289;28;20093;-59
2021/04/28 13:56:22;;;;;;;5.90;3.65;;;;;;;;;;4995751;28;20121;-59
2021/04/28 13:58:47;;;;;;;5.28;3.70;;;;;;;;;;4993503;28;20046;-60
2021/04/28 14:01:13;;;;;;;6.60;3.63;;;;;;;;;;4995812;28;20030;-59
2021/04/28 14:03:41;;;;;;;5.20;3.33;;;;;;;;;;4994822;28;20031;-60
2021/04/28 14:06:08;;;;;;;5.70;3.70;;;;;;;;;;4996107;28;20041;-59
2021/04/28 14:08:33;;;;;;;6.53;3.90;;;;;;;;;;4993690;28;20165;-59
2021/04/28 14:10:59;;;;;;;5.75;3.80;;;;;;;;;;4994999;28;20034;-60
2021/04/28 14:13:24;;;;;;;6.53;3.90;;;;;;;;;;4999719;28;20043;-60
2021/04/28 14:15:50;;;;;;;6.43;4.05;;;;;;;;;;4994522;28;20423;-59
2021/04/28 14:18:15;;;;;;;5.35;3.80;;;;;;;;;;4994256;28;20525;-59
2021/04/28 14:20:41;;;;;;;5.60;3.65;;;;;;;;;;4996241;28;20484;-59
2021/04/28 14:23:06;;;;;;;5.68;3.78;;;;;;;;;;4994907;28;20547;-60
2021/04/28 14:25:32;;;;;;;4.85;3.30;;;;;;;;;;4993763;28;20153;-59
2021/04/28 14:27:57;;;;;;;5.78;3.53;;;;;;;;;;4994923;28;20033;-59
2021/04/28 14:30:23;;;;;;;5.28;3.58;;;;;;;;;;4999923;28;20237;-59
2021/04/28 14:32:49;;;;;;;5.47;3.63;;;;;;;;;;4997771;28;20039;-59
2021/04/28 14:35:15;;;;;;;5.30;3.40;;;;;;;;;;4979253;28;20878;-59
2021/04/28 14:37:40;;;;;;;5.55;3.40;;;;;;;;;;5000524;28;20049;-59
2021/04/28 14:40:08;;;;;;;4.93;3.13;;;;;;;;;;4997992;28;20400;-59
2021/04/28 14:42:33;;;;;;;4.63;3.08;;;;;;;;;;4996058;28;20030;-60
2021/04/28 14:44:59;;;;;;;4.18;3.00;;;;;;;;;;4996462;28;20031;-59
2021/04/28 14:47:24;;;;;;;4.43;3.15;;;;;;;;;;4996236;28;20073;-59
2021/04/28 14:49:50;;;;;;;3.78;2.90;;;;;;;;;;4998326;28;20546;-59
2021/04/28 14:52:16;;;;;;;4.30;2.90;;;;;;;;;;4996472;28;20054;-59
2021/04/28 14:54:42;;;;;;;5.18;3.15;;;;;;;;;;4995719;28;20081;-59